createdAt,value
2023-05-12T00:00:46.815Z,31.94
2023-05-12T00:01:46.844Z,31.93
2023-05-12T00:02:46.950Z,32.05
2023-05-12T00:03:47.204Z,32.05
2023-05-12T00:04:47.014Z,32.07
2023-05-12T00:05:46.938Z,32.10
2023-05-12T00:06:46.958Z,32.00
2023-05-12T00:07:47.034Z,31.89
2023-05-12T00:08:46.989Z,32.00
2023-05-12T00:09:47.022Z,32.07
2023-05-12T00:10:47.060Z,31.97
2023-05-12T00:11:47.086Z,31.96
2023-05-12T00:12:47.125Z,32.10
2023-05-12T00:13:47.188Z,31.97
2023-05-12T00:14:47.145Z,31.96
2023-05-12T00:15:47.174Z,31.98
2023-05-12T00:16:47.301Z,32.00
2023-05-12T00:17:47.315Z,31.97
2023-05-12T00:18:47.291Z,32.04
2023-05-12T00:19:47.245Z,32.00
2023-05-12T00:20:47.319Z,31.90
2023-05-12T00:21:47.290Z,32.01
2023-05-12T00:22:47.316Z,31.98
2023-05-12T00:23:47.321Z,32.01
2023-05-12T00:24:47.333Z,31.94
2023-05-12T00:25:47.364Z,31.93
2023-05-12T00:26:47.371Z,32.05
2023-05-12T00:27:47.400Z,31.98
2023-05-12T00:28:47.426Z,32.01
2023-05-12T00:29:47.442Z,32.08
2023-05-12T00:30:47.475Z,32.08
2023-05-12T00:31:47.547Z,32.05
2023-05-12T00:32:47.541Z,32.10
2023-05-12T00:33:47.547Z,32.03
2023-05-12T00:34:47.552Z,32.05
2023-05-12T00:35:47.584Z,32.07
2023-05-12T00:36:47.582Z,31.93
2023-05-12T00:37:47.616Z,32.03
2023-05-12T00:38:47.636Z,32.00
2023-05-12T00:39:47.652Z,32.05
2023-05-12T00:40:47.693Z,31.90
2023-05-12T00:41:47.704Z,32.01
2023-05-12T00:42:47.734Z,32.01
2023-05-12T00:43:47.737Z,32.00
2023-05-12T00:44:47.854Z,32.06
2023-05-12T00:45:47.789Z,32.08
2023-05-12T00:46:47.803Z,32.05
2023-05-12T00:47:47.864Z,32.02
2023-05-12T00:48:47.853Z,31.97
2023-05-12T00:49:47.876Z,31.97
2023-05-12T00:50:47.930Z,31.93
2023-05-12T00:51:47.925Z,31.90
2023-05-12T00:52:47.928Z,31.93
2023-05-12T00:53:50.199Z,32.01
2023-05-12T00:54:47.990Z,32.02
2023-05-12T00:55:47.995Z,31.99
2023-05-12T00:56:48.026Z,31.98
2023-05-12T00:57:48.055Z,31.91
2023-05-12T00:58:48.068Z,31.98
2023-05-12T00:59:48.204Z,31.98
2023-05-12T01:00:48.240Z,31.99
2023-05-12T01:01:48.140Z,31.98
2023-05-12T01:02:48.275Z,32.01
2023-05-12T01:03:48.217Z,32.08
2023-05-12T01:04:48.209Z,32.03
2023-05-12T01:05:48.202Z,32.01
2023-05-12T01:06:48.177Z,32.02
2023-05-12T01:07:48.170Z,31.98
2023-05-12T01:08:48.144Z,32.03
2023-05-12T01:09:48.122Z,32.02
2023-05-12T01:10:48.122Z,31.95
2023-05-12T01:11:48.132Z,32.02
2023-05-12T01:12:48.094Z,32.03
2023-05-12T01:13:48.057Z,31.97
2023-05-12T01:14:48.056Z,32.05
2023-05-12T01:15:48.039Z,32.01
2023-05-12T01:16:48.053Z,31.99
2023-05-12T01:17:48.157Z,31.97
2023-05-12T01:18:48.007Z,31.94
2023-05-12T01:19:47.970Z,31.90
2023-05-12T01:20:47.971Z,32.02
2023-05-12T01:21:47.936Z,32.02
2023-05-12T01:22:47.909Z,31.99
2023-05-12T01:23:47.935Z,31.98
2023-05-12T01:24:47.884Z,32.06
2023-05-12T01:25:47.852Z,31.92
2023-05-12T01:26:47.839Z,31.98
2023-05-12T01:27:47.816Z,31.98
2023-05-12T01:28:47.805Z,31.98
2023-05-12T01:29:47.777Z,32.05
2023-05-12T01:30:47.822Z,32.01
2023-05-12T01:31:47.907Z,31.99
2023-05-12T01:32:47.771Z,32.13
2023-05-12T01:33:47.714Z,32.08
2023-05-12T01:34:47.685Z,32.11
2023-05-12T01:35:47.715Z,32.08
2023-05-12T01:36:47.722Z,32.06
2023-05-12T01:37:47.754Z,32.08
2023-05-12T01:38:47.787Z,32.01
2023-05-12T01:39:47.813Z,31.98
2023-05-12T01:40:47.826Z,31.96
2023-05-12T01:41:47.860Z,32.08
2023-05-12T01:42:47.887Z,31.99
2023-05-12T01:43:47.897Z,31.99
2023-05-12T01:44:47.974Z,31.99
2023-05-12T01:45:47.975Z,31.99
2023-05-12T01:46:48.032Z,32.00
2023-05-12T01:47:48.157Z,32.02
2023-05-12T01:48:48.040Z,32.06
2023-05-12T01:49:48.069Z,32.03
2023-05-12T01:50:48.153Z,32.04
2023-05-12T01:51:48.112Z,32.01
2023-05-12T01:52:48.146Z,31.94
2023-05-12T01:53:48.150Z,31.99
2023-05-12T01:54:48.119Z,31.98
2023-05-12T01:55:48.099Z,31.94
2023-05-12T01:56:48.107Z,31.94
2023-05-12T01:57:48.082Z,31.97
2023-05-12T01:58:48.094Z,31.90
2023-05-12T01:59:48.059Z,31.98
2023-05-12T02:00:48.024Z,31.92
2023-05-12T02:01:48.061Z,31.99
2023-05-12T02:02:48.065Z,31.95
2023-05-12T02:03:48.108Z,31.94
2023-05-12T02:04:47.964Z,31.91
2023-05-12T02:05:47.954Z,31.95
2023-05-12T02:06:47.966Z,31.87
2023-05-12T02:07:47.999Z,31.94
2023-05-12T02:08:48.098Z,31.96
2023-05-12T02:09:48.068Z,31.94
2023-05-12T02:10:48.067Z,32.05
2023-05-12T02:11:48.097Z,32.02
2023-05-12T02:12:48.119Z,32.00
2023-05-12T02:13:48.151Z,31.97
2023-05-12T02:14:48.186Z,31.95
2023-05-12T02:15:48.210Z,31.99
2023-05-12T02:16:48.392Z,31.94
2023-05-12T02:17:48.314Z,31.99
2023-05-12T02:18:48.398Z,31.99
2023-05-12T02:19:48.337Z,31.97
2023-05-12T02:20:48.376Z,31.96
2023-05-12T02:21:48.462Z,31.99
2023-05-12T02:22:48.423Z,31.99
2023-05-12T02:23:48.453Z,31.99
2023-05-12T02:24:48.493Z,32.00
2023-05-12T02:25:48.520Z,32.04
2023-05-12T02:26:48.547Z,32.03
2023-05-12T02:27:48.581Z,32.03
2023-05-12T02:28:48.599Z,32.07
2023-05-12T02:29:48.624Z,32.03
2023-05-12T02:30:48.710Z,32.00
2023-05-12T02:31:48.718Z,32.01
2023-05-12T02:32:48.783Z,32.00
2023-05-12T02:33:48.761Z,32.03
2023-05-12T02:34:48.795Z,32.01
2023-05-12T02:35:48.807Z,31.96
2023-05-12T02:36:48.843Z,31.93
2023-05-12T02:37:48.877Z,31.99
2023-05-12T02:38:48.909Z,31.95
2023-05-12T02:39:48.918Z,32.07
2023-05-12T02:40:48.953Z,31.97
2023-05-12T02:41:48.976Z,31.93
2023-05-12T02:42:49.009Z,31.91
2023-05-12T02:43:49.029Z,31.97
2023-05-12T02:44:49.060Z,31.94
2023-05-12T02:45:49.126Z,31.88
2023-05-12T02:46:49.154Z,31.97
2023-05-12T02:47:49.196Z,31.99
2023-05-12T02:48:49.176Z,32.00
2023-05-12T02:49:49.212Z,32.00
2023-05-12T02:50:49.242Z,32.00
2023-05-12T02:51:49.268Z,31.85
2023-05-12T02:52:49.301Z,31.89
2023-05-12T02:53:49.287Z,31.96
2023-05-12T02:54:49.267Z,31.91
2023-05-12T02:55:49.238Z,31.86
2023-05-12T02:56:49.217Z,31.86
2023-05-12T02:57:49.194Z,31.90
2023-05-12T02:58:49.191Z,31.97
2023-05-12T02:59:49.178Z,31.98
2023-05-12T03:00:56.897Z,31.89
2023-05-12T03:01:50.190Z,32.02
2023-05-12T03:02:49.172Z,32.00
2023-05-12T03:03:49.230Z,31.90
2023-05-12T03:04:49.057Z,31.82
2023-05-12T03:05:49.050Z,31.92
2023-05-12T03:06:49.032Z,31.99
2023-05-12T03:07:49.009Z,31.94
2023-05-12T03:08:49.016Z,31.98
2023-05-12T03:09:48.992Z,31.98
2023-05-12T03:10:48.971Z,32.00
2023-05-12T03:11:48.955Z,31.98
2023-05-12T03:12:48.938Z,31.98
2023-05-12T03:13:48.977Z,31.94
2023-05-12T03:14:49.000Z,31.94
2023-05-12T03:15:49.034Z,31.88
2023-05-12T03:16:49.133Z,31.89
2023-05-12T03:17:49.107Z,31.94
2023-05-12T03:18:49.164Z,31.92
2023-05-12T03:19:49.047Z,31.92
2023-05-12T03:20:49.025Z,31.92
2023-05-12T03:21:49.013Z,32.04
2023-05-12T03:22:49.007Z,31.96
2023-05-12T03:23:48.987Z,31.88
2023-05-12T03:24:48.982Z,31.94
2023-05-12T03:25:48.958Z,31.98
2023-05-12T03:26:48.938Z,31.94
2023-05-12T03:27:48.927Z,31.96
2023-05-12T03:28:48.920Z,31.98
2023-05-12T03:29:48.901Z,32.04
2023-05-12T03:30:48.888Z,31.97
2023-05-12T03:31:48.948Z,31.98
2023-05-12T03:32:48.904Z,31.98
2023-05-12T03:33:48.845Z,31.97
2023-05-12T03:34:48.834Z,31.93
2023-05-12T03:35:48.828Z,32.00
2023-05-12T03:36:48.835Z,32.01
2023-05-12T03:37:48.882Z,31.97
2023-05-12T03:38:48.900Z,32.00
2023-05-12T03:39:48.949Z,31.94
2023-05-12T03:40:48.989Z,31.98
2023-05-12T03:41:49.024Z,31.98
2023-05-12T03:42:49.058Z,31.96
2023-05-12T03:43:49.096Z,31.90
2023-05-12T03:44:49.114Z,31.90
2023-05-12T03:45:49.143Z,31.89
2023-05-12T03:46:49.225Z,31.87
2023-05-12T03:47:49.282Z,31.98
2023-05-12T03:48:49.247Z,31.97
2023-05-12T03:49:49.288Z,31.92
2023-05-12T03:50:49.321Z,31.94
2023-05-12T03:51:49.349Z,31.89
2023-05-12T03:52:49.384Z,31.77
2023-05-12T03:53:49.362Z,31.79
2023-05-12T03:54:49.360Z,31.82
2023-05-12T03:55:49.352Z,31.81
2023-05-12T03:56:49.338Z,31.83
2023-05-12T03:57:49.322Z,31.90
2023-05-12T03:58:49.314Z,31.88
2023-05-12T03:59:49.309Z,31.98
2023-05-12T04:00:49.305Z,31.90
2023-05-12T04:01:49.344Z,31.81
2023-05-12T04:02:49.359Z,31.83
2023-05-12T04:03:49.417Z,31.98
2023-05-12T04:04:49.260Z,31.94
2023-05-12T04:05:49.254Z,31.98
2023-05-12T04:06:49.273Z,31.94
2023-05-12T04:07:49.243Z,31.91
2023-05-12T04:08:49.232Z,31.91
2023-05-12T04:09:49.220Z,31.95
2023-05-12T04:10:49.200Z,31.83
2023-05-12T04:11:49.244Z,31.83
2023-05-12T04:12:49.273Z,31.92
2023-05-12T04:13:49.294Z,31.82
2023-05-12T04:14:49.335Z,31.84
2023-05-12T04:15:49.361Z,31.83
2023-05-12T04:16:49.497Z,31.87
2023-05-12T04:17:49.468Z,31.76
2023-05-12T04:18:49.531Z,31.86
2023-05-12T04:19:49.500Z,31.88
2023-05-12T04:20:49.525Z,31.91
2023-05-12T04:21:49.578Z,31.88
2023-05-12T04:22:49.594Z,31.90
2023-05-12T04:23:49.629Z,31.81
2023-05-12T04:24:49.672Z,31.80
2023-05-12T04:25:49.681Z,31.84
2023-05-12T04:26:49.720Z,31.81
2023-05-12T04:27:49.761Z,31.84
2023-05-12T04:28:49.801Z,31.88
2023-05-12T04:29:49.813Z,31.85
2023-05-12T04:30:49.852Z,31.90
2023-05-12T04:31:49.929Z,31.87
2023-05-12T04:32:49.966Z,31.86
2023-05-12T04:33:49.928Z,31.77
2023-05-12T04:34:49.972Z,31.77
2023-05-12T04:35:50.008Z,31.81
2023-05-12T04:36:50.030Z,31.88
2023-05-12T04:37:50.058Z,31.76
2023-05-12T04:38:50.096Z,31.82
2023-05-12T04:39:50.124Z,31.83
2023-05-12T04:40:50.161Z,31.81
2023-05-12T04:41:50.193Z,31.86
2023-05-12T04:42:50.176Z,31.87
2023-05-12T04:44:50.183Z,31.91
2023-05-12T04:45:50.168Z,31.88
2023-05-12T04:46:50.132Z,31.90
2023-05-12T04:47:50.121Z,31.90
2023-05-12T04:48:50.106Z,31.88
2023-05-12T04:49:50.098Z,31.83
2023-05-12T04:50:50.092Z,31.83
2023-05-12T04:51:50.076Z,31.87
2023-05-12T04:52:50.064Z,31.74
2023-05-12T04:53:50.063Z,31.80
2023-05-12T04:54:50.044Z,31.80
2023-05-12T04:55:50.028Z,31.82
2023-05-12T04:56:50.030Z,31.85
2023-05-12T04:57:50.001Z,31.77
2023-05-12T04:58:49.989Z,31.79
2023-05-12T04:59:49.981Z,31.81
2023-05-12T05:00:49.958Z,31.96
2023-05-12T05:01:49.997Z,32.06
2023-05-12T05:02:49.986Z,31.98
2023-05-12T05:03:50.110Z,31.85
2023-05-12T05:04:49.936Z,31.90
2023-05-12T05:05:49.969Z,31.78
2023-05-12T05:06:50.025Z,31.77
2023-05-12T05:07:50.026Z,31.82
2023-05-12T05:08:50.077Z,31.78
2023-05-12T05:09:50.094Z,31.82
2023-05-12T05:10:50.133Z,31.74
2023-05-12T05:11:50.161Z,31.79
2023-05-12T05:12:50.174Z,31.84
2023-05-12T05:13:50.234Z,31.75
2023-05-12T05:14:50.244Z,31.78
2023-05-12T05:15:50.324Z,31.70
2023-05-12T05:16:50.349Z,31.74
2023-05-12T05:17:50.404Z,31.76
2023-05-12T05:18:50.396Z,31.75
2023-05-12T05:19:58.517Z,31.78
2023-05-12T05:20:57.356Z,31.86
2023-05-12T05:21:51.375Z,31.79
2023-05-12T05:22:50.361Z,31.80
2023-05-12T05:23:50.350Z,31.79
2023-05-12T05:24:50.332Z,31.72
2023-05-12T05:25:50.299Z,31.83
2023-05-12T05:26:50.292Z,31.81
2023-05-12T05:27:50.314Z,31.82
2023-05-12T05:28:50.260Z,31.77
2023-05-12T05:29:50.263Z,31.91
2023-05-12T05:30:50.263Z,31.89
2023-05-12T05:31:50.262Z,31.90
2023-05-12T05:32:50.225Z,31.83
2023-05-12T05:33:50.263Z,31.89
2023-05-12T05:34:50.174Z,31.83
2023-05-12T05:35:50.165Z,31.89
2023-05-12T05:36:50.142Z,31.88
2023-05-12T05:37:50.171Z,32.13
2023-05-12T05:38:50.112Z,32.20
2023-05-12T05:39:50.109Z,32.69
2023-05-12T05:40:53.630Z,33.54
2023-05-12T05:41:50.082Z,33.45
2023-05-12T05:42:50.074Z,33.81
2023-05-12T05:43:50.047Z,34.44
2023-05-12T05:44:50.034Z,34.70
2023-05-12T05:45:50.297Z,34.75
2023-05-12T05:46:49.997Z,34.96
2023-05-12T05:47:50.068Z,36.01
2023-05-12T05:48:49.948Z,35.62
2023-05-12T05:49:49.954Z,35.51
2023-05-12T05:50:49.919Z,35.49
2023-05-12T05:51:49.895Z,35.57
2023-05-12T05:52:49.893Z,35.84
2023-05-12T05:53:49.923Z,35.68
2023-05-12T05:54:49.828Z,35.62
2023-05-12T05:55:49.805Z,35.76
2023-05-12T05:56:49.791Z,35.78
2023-05-12T05:57:49.792Z,35.78
2023-05-12T05:58:49.728Z,35.80
2023-05-12T05:59:49.724Z,35.79
2023-05-12T06:00:49.693Z,35.85
2023-05-12T06:01:49.800Z,35.84
2023-05-12T06:02:49.945Z,35.91
2023-05-12T06:03:49.767Z,35.91
2023-05-12T06:04:49.598Z,35.96
2023-05-12T06:05:49.568Z,36.06
2023-05-12T06:06:49.550Z,36.09
2023-05-12T06:07:49.520Z,36.04
2023-05-12T06:08:49.479Z,35.98
2023-05-12T06:09:49.467Z,36.04
2023-05-12T06:10:49.433Z,36.19
2023-05-12T06:11:49.397Z,36.16
2023-05-12T06:12:49.444Z,36.26
2023-05-12T06:13:49.365Z,36.27
2023-05-12T06:14:49.313Z,36.26
2023-05-12T06:15:49.280Z,36.35
2023-05-12T06:16:49.323Z,36.31
2023-05-12T06:17:49.261Z,36.39
2023-05-12T06:18:49.228Z,36.40
2023-05-12T06:19:49.137Z,36.59
2023-05-12T06:20:49.113Z,36.53
2023-05-12T06:21:49.112Z,36.51
2023-05-12T06:22:49.055Z,36.52
2023-05-12T06:23:49.017Z,36.52
2023-05-12T06:24:48.984Z,36.63
2023-05-12T06:25:48.947Z,36.64
2023-05-12T06:26:48.920Z,36.73
2023-05-12T06:27:48.885Z,36.74
2023-05-12T06:28:48.848Z,36.66
2023-05-12T06:29:48.835Z,36.72
2023-05-12T06:30:48.869Z,36.66
2023-05-12T06:31:48.933Z,36.68
2023-05-12T06:32:49.038Z,36.81
2023-05-12T06:33:48.956Z,36.79
2023-05-12T06:34:48.983Z,36.83
2023-05-12T06:35:49.055Z,36.85
2023-05-12T06:36:49.040Z,36.81
2023-05-12T06:37:49.086Z,36.92
2023-05-12T06:38:49.134Z,36.98
2023-05-12T06:39:49.142Z,37.00
2023-05-12T06:40:49.171Z,37.20
2023-05-12T06:41:49.200Z,37.59
2023-05-12T06:42:49.366Z,37.27
2023-05-12T06:43:49.305Z,37.10
2023-05-12T06:44:49.328Z,36.85
2023-05-12T06:45:49.410Z,36.46
2023-05-12T06:46:49.463Z,36.34
2023-05-12T06:47:49.446Z,36.36
2023-05-12T06:48:49.549Z,36.06
2023-05-12T06:49:49.458Z,35.46
2023-05-12T06:50:49.485Z,35.58
2023-05-12T06:51:49.521Z,35.62
2023-05-12T06:52:49.549Z,35.51
2023-05-12T06:53:49.566Z,35.35
2023-05-12T06:54:49.546Z,35.41
2023-05-12T06:55:49.551Z,35.10
2023-05-12T06:56:49.554Z,34.19
2023-05-12T06:57:49.531Z,34.52
2023-05-12T06:58:49.573Z,34.50
2023-05-12T06:59:49.452Z,34.51
2023-05-12T07:00:49.391Z,34.57
2023-05-12T07:01:49.507Z,34.47
2023-05-12T07:02:49.327Z,34.70
2023-05-12T07:03:49.348Z,34.52
2023-05-12T07:04:49.235Z,34.58
2023-05-12T07:05:49.272Z,34.54
2023-05-12T07:06:49.165Z,34.48
2023-05-12T07:07:49.147Z,34.53
2023-05-12T07:08:49.100Z,34.53
2023-05-12T07:09:49.107Z,34.33
2023-05-12T07:10:49.128Z,34.30
2023-05-12T07:11:49.097Z,34.17
2023-05-12T07:12:49.074Z,34.17
2023-05-12T07:13:49.003Z,34.14
2023-05-12T07:14:48.962Z,34.22
2023-05-12T07:15:48.941Z,34.07
2023-05-12T07:16:48.896Z,33.90
2023-05-12T07:17:48.988Z,34.00
2023-05-12T07:18:49.525Z,34.07
2023-05-12T07:19:48.804Z,33.93
2023-05-12T07:20:48.740Z,33.84
2023-05-12T07:21:48.751Z,33.87
2023-05-12T07:22:48.676Z,33.66
2023-05-12T07:23:48.637Z,33.92
2023-05-12T07:24:48.660Z,33.93
2023-05-12T07:25:48.645Z,33.71
2023-05-12T07:26:48.521Z,33.74
2023-05-12T07:27:48.508Z,33.65
2023-05-12T07:28:48.482Z,33.59
2023-05-12T07:29:48.452Z,33.63
2023-05-12T07:30:48.452Z,33.64
2023-05-12T07:31:48.379Z,33.60
2023-05-12T07:32:48.388Z,33.46
2023-05-12T07:33:48.317Z,33.55
2023-05-12T07:34:48.315Z,33.48
2023-05-12T07:35:48.302Z,33.44
2023-05-12T07:36:48.261Z,34.45
2023-05-12T07:37:48.293Z,34.86
2023-05-12T07:38:48.221Z,34.97
2023-05-12T07:39:48.212Z,35.05
2023-05-12T07:40:48.261Z,35.33
2023-05-12T07:41:48.181Z,35.81
2023-05-12T07:42:48.175Z,35.94
2023-05-12T07:43:55.187Z,36.38
2023-05-12T07:44:48.093Z,37.02
2023-05-12T07:45:48.074Z,37.04
2023-05-12T07:46:48.162Z,37.89
2023-05-12T07:47:48.084Z,37.90
2023-05-12T07:48:47.974Z,38.11
2023-05-12T07:49:47.947Z,38.41
2023-05-12T07:50:47.932Z,38.24
2023-05-12T07:51:47.939Z,38.56
2023-05-12T07:52:48.016Z,38.31
2023-05-12T07:53:47.892Z,37.72
2023-05-12T07:54:47.741Z,37.84
2023-05-12T07:55:47.699Z,37.59
2023-05-12T07:56:47.673Z,37.68
2023-05-12T07:57:47.613Z,37.47
2023-05-12T07:58:47.785Z,37.49
2023-05-12T07:59:47.554Z,37.59
2023-05-12T08:00:47.472Z,37.74
2023-05-12T08:01:47.499Z,37.68
2023-05-12T08:02:47.778Z,37.63
2023-05-12T08:03:47.436Z,37.49
2023-05-12T08:04:47.309Z,37.35
2023-05-12T08:05:47.270Z,37.33
2023-05-12T08:06:47.211Z,37.47
2023-05-12T08:07:47.196Z,37.65
2023-05-12T08:08:47.151Z,37.59
2023-05-12T08:09:47.076Z,37.46
2023-05-12T08:10:47.117Z,37.61
2023-05-12T08:11:50.017Z,37.18
2023-05-12T08:12:46.940Z,37.39
2023-05-12T08:13:46.889Z,36.43
2023-05-12T08:14:46.854Z,36.86
2023-05-12T08:15:46.868Z,36.07
2023-05-12T08:16:46.770Z,36.95
2023-05-12T08:17:47.566Z,37.16
2023-05-12T08:18:46.700Z,37.08
2023-05-12T08:19:46.574Z,37.06
2023-05-12T08:20:46.612Z,36.92
2023-05-12T08:21:46.492Z,37.18
2023-05-12T08:22:46.421Z,37.19
2023-05-12T08:23:46.376Z,36.94
2023-05-12T08:24:46.347Z,36.91
2023-05-12T08:25:46.490Z,37.12
2023-05-12T08:26:46.237Z,37.18
2023-05-12T08:27:46.190Z,36.93
2023-05-12T08:28:46.155Z,36.69
2023-05-12T08:29:46.112Z,36.43
2023-05-12T08:30:46.149Z,35.72
2023-05-12T08:31:46.019Z,35.55
2023-05-12T08:32:46.060Z,34.95
2023-05-12T08:33:48.296Z,35.15
2023-05-12T08:34:46.003Z,34.92
2023-05-12T08:35:45.955Z,34.94
2023-05-12T08:36:45.851Z,34.76
2023-05-12T08:37:45.822Z,34.74
2023-05-12T08:38:45.766Z,34.56
2023-05-12T08:39:46.492Z,34.58
2023-05-12T08:40:46.470Z,34.48
2023-05-12T08:41:45.720Z,34.56
2023-05-12T08:42:45.999Z,34.37
2023-05-12T08:43:45.523Z,34.24
2023-05-12T08:44:45.703Z,34.12
2023-05-12T08:45:45.662Z,34.04
2023-05-12T08:46:45.481Z,33.56
2023-05-12T08:47:45.593Z,33.71
2023-05-12T08:48:46.006Z,33.85
2023-05-12T08:49:45.497Z,33.90
2023-05-12T08:50:45.275Z,34.03
2023-05-12T08:51:48.072Z,33.81
2023-05-12T08:52:46.114Z,33.97
2023-05-12T08:53:45.101Z,34.25
2023-05-12T08:54:55.060Z,34.32
2023-05-12T08:55:57.088Z,34.34
2023-05-12T08:57:44.910Z,34.32
2023-05-12T08:58:44.872Z,34.36
2023-05-12T08:59:44.858Z,34.43
2023-05-12T09:00:44.857Z,34.46
2023-05-12T09:01:44.833Z,34.57
2023-05-12T09:02:52.979Z,34.56
2023-05-12T09:03:45.658Z,34.67
2023-05-12T09:04:44.657Z,34.78
2023-05-12T09:05:44.586Z,34.81
2023-05-12T09:06:45.030Z,34.89
2023-05-12T09:07:44.465Z,35.03
2023-05-12T09:08:44.405Z,35.02
2023-05-12T09:09:44.370Z,35.19
2023-05-12T09:10:44.337Z,35.21
2023-05-12T09:11:44.274Z,35.26
2023-05-12T09:12:44.209Z,35.42
2023-05-12T09:13:44.205Z,35.29
2023-05-12T09:14:44.109Z,35.13
2023-05-12T09:15:44.068Z,35.19
2023-05-12T09:16:44.106Z,35.24
2023-05-12T09:17:44.006Z,35.21
2023-05-12T09:18:43.968Z,35.36
2023-05-12T09:19:43.857Z,35.35
2023-05-12T09:20:43.846Z,35.61
2023-05-12T09:21:43.751Z,35.74
2023-05-12T09:22:43.722Z,35.81
2023-05-12T09:23:43.643Z,35.75
2023-05-12T09:24:43.613Z,35.90
2023-05-12T09:25:43.572Z,36.11
2023-05-12T09:26:43.991Z,36.24
2023-05-12T09:27:43.438Z,36.22
2023-05-12T09:28:43.407Z,36.16
2023-05-12T09:29:55.571Z,36.17
2023-05-12T09:30:44.545Z,36.20
2023-05-12T09:31:43.280Z,36.18
2023-05-12T09:32:43.216Z,36.22
2023-05-12T09:33:43.162Z,36.11
2023-05-12T09:34:43.118Z,36.33
2023-05-12T09:35:43.072Z,36.32
2023-05-12T09:36:42.997Z,36.47
2023-05-12T09:37:42.964Z,36.38
2023-05-12T09:38:42.932Z,36.65
2023-05-12T09:39:42.856Z,36.53
2023-05-12T09:40:42.817Z,36.58
2023-05-12T09:41:42.736Z,37.02
2023-05-12T09:42:42.694Z,37.40
2023-05-12T09:43:42.662Z,36.77
2023-05-12T09:44:42.593Z,36.91
2023-05-12T09:45:42.587Z,36.49
2023-05-12T09:46:42.535Z,36.37
2023-05-12T09:47:42.465Z,36.36
2023-05-12T09:48:42.615Z,36.18
2023-05-12T09:49:42.369Z,36.39
2023-05-12T09:50:47.446Z,36.16
2023-05-12T09:51:42.203Z,35.80
2023-05-12T09:52:42.430Z,35.94
2023-05-12T09:53:42.202Z,35.96
2023-05-12T09:54:42.071Z,35.98
2023-05-12T09:55:42.553Z,36.09
2023-05-12T09:56:42.651Z,36.00
2023-05-12T09:57:42.577Z,36.19
2023-05-12T09:58:42.201Z,36.25
2023-05-12T09:59:43.789Z,36.35
2023-05-12T10:01:41.962Z,36.42
2023-05-12T10:02:41.913Z,36.56
2023-05-12T10:03:41.776Z,36.67
2023-05-12T10:04:41.798Z,36.65
2023-05-12T10:05:41.598Z,36.77
2023-05-12T10:06:42.590Z,36.63
2023-05-12T10:07:41.538Z,37.03
2023-05-12T10:08:42.054Z,36.96
2023-05-12T10:09:41.352Z,37.00
2023-05-12T10:10:41.333Z,37.14
2023-05-12T10:11:41.376Z,37.23
2023-05-12T10:12:41.248Z,37.22
2023-05-12T10:13:41.258Z,37.30
2023-05-12T10:14:41.101Z,37.25
2023-05-12T10:15:41.053Z,37.14
2023-05-12T10:16:41.003Z,37.29
2023-05-12T10:17:41.659Z,37.29
2023-05-12T10:18:40.941Z,37.22
2023-05-12T10:19:40.832Z,37.23
2023-05-12T10:20:40.756Z,37.34
2023-05-12T10:21:40.781Z,37.66
2023-05-12T10:22:40.675Z,37.50
2023-05-12T10:23:40.590Z,37.62
2023-05-12T10:24:40.545Z,37.53
2023-05-12T10:25:40.580Z,37.76
2023-05-12T10:26:40.415Z,37.77
2023-05-12T10:27:40.336Z,37.56
2023-05-12T10:28:40.307Z,37.68
2023-05-12T10:29:40.247Z,37.83
2023-05-12T10:30:40.273Z,37.70
2023-05-12T10:31:40.247Z,37.64
2023-05-12T10:32:40.160Z,37.66
2023-05-12T10:33:40.012Z,38.01
2023-05-12T10:34:39.929Z,37.67
2023-05-12T10:35:39.900Z,37.55
2023-05-12T10:36:40.549Z,38.17
2023-05-12T10:37:39.745Z,38.92
2023-05-12T10:38:39.690Z,38.22
2023-05-12T10:39:39.681Z,37.69
2023-05-12T10:40:39.579Z,37.56
2023-05-12T10:41:39.621Z,37.18
2023-05-12T10:42:39.475Z,37.24
2023-05-12T10:43:39.394Z,36.74
2023-05-12T10:44:39.394Z,36.04
2023-05-12T10:45:39.290Z,35.57
2023-05-12T10:46:39.231Z,35.39
2023-05-12T10:47:39.173Z,35.20
2023-05-12T10:48:39.097Z,35.15
2023-05-12T10:49:39.041Z,35.16
2023-05-12T10:50:38.961Z,35.11
2023-05-12T10:51:39.529Z,35.08
2023-05-12T10:52:39.195Z,35.21
2023-05-12T10:53:49.242Z,35.37
2023-05-12T10:54:38.756Z,35.30
2023-05-12T10:55:39.574Z,35.64
2023-05-12T10:56:38.881Z,35.73
2023-05-12T10:57:38.925Z,35.81
2023-05-12T10:58:38.742Z,35.90
2023-05-12T10:59:38.855Z,36.00
2023-05-12T11:00:38.958Z,35.78
2023-05-12T11:01:39.310Z,35.68
2023-05-12T11:02:39.658Z,36.18
2023-05-12T11:03:38.488Z,36.03
2023-05-12T11:04:38.636Z,36.08
2023-05-12T11:05:38.341Z,36.17
2023-05-12T11:06:39.147Z,36.31
2023-05-12T11:07:38.108Z,36.25
2023-05-12T11:08:38.401Z,36.23
2023-05-12T11:09:45.253Z,35.77
2023-05-12T11:10:39.748Z,36.11
2023-05-12T11:11:38.492Z,36.04
2023-05-12T11:12:38.153Z,36.37
2023-05-12T11:13:37.667Z,36.35
2023-05-12T11:14:37.615Z,36.56
2023-05-12T11:15:38.177Z,36.71
2023-05-12T11:16:37.513Z,36.70
2023-05-12T11:17:37.478Z,36.96
2023-05-12T11:18:37.402Z,36.74
2023-05-12T11:19:37.355Z,36.78
2023-05-12T11:20:37.299Z,37.05
2023-05-12T11:21:38.093Z,37.15
2023-05-12T11:22:37.331Z,37.01
2023-05-12T11:23:37.272Z,37.12
2023-05-12T11:24:37.234Z,37.78
2023-05-12T11:25:37.307Z,37.31
2023-05-12T11:26:37.138Z,37.16
2023-05-12T11:27:37.100Z,37.68
2023-05-12T11:28:37.212Z,37.84
2023-05-12T11:29:37.328Z,37.52
2023-05-12T11:30:37.125Z,37.31
2023-05-12T11:31:37.064Z,37.04
2023-05-12T11:32:37.003Z,36.98
2023-05-12T11:33:37.039Z,36.36
2023-05-12T11:34:36.908Z,37.06
2023-05-12T11:35:36.840Z,35.84
2023-05-12T11:36:37.625Z,35.82
2023-05-12T11:37:36.787Z,36.03
2023-05-12T11:38:36.663Z,35.66
2023-05-12T11:39:36.620Z,35.55
2023-05-12T11:40:36.554Z,35.48
2023-05-12T11:41:36.480Z,35.41
2023-05-12T11:42:36.434Z,35.41
2023-05-12T11:43:36.371Z,35.31
2023-05-12T11:44:36.341Z,35.10
2023-05-12T11:45:36.321Z,35.10
2023-05-12T11:46:36.227Z,35.13
2023-05-12T11:47:36.194Z,34.97
2023-05-12T11:48:36.112Z,35.00
2023-05-12T11:49:36.062Z,34.86
2023-05-12T11:50:36.025Z,34.83
2023-05-12T11:51:35.948Z,34.78
2023-05-12T11:52:35.903Z,34.71
2023-05-12T11:53:35.859Z,34.73
2023-05-12T11:54:35.796Z,34.69
2023-05-12T11:55:35.732Z,34.63
2023-05-12T11:56:35.730Z,34.64
2023-05-12T11:57:35.735Z,34.61
2023-05-12T11:58:35.832Z,34.56
2023-05-12T11:59:35.549Z,34.44
2023-05-12T12:00:35.543Z,34.39
2023-05-12T12:01:36.094Z,34.34
2023-05-12T12:02:35.501Z,34.30
2023-05-12T12:03:35.599Z,34.25
2023-05-12T12:04:35.360Z,34.22
2023-05-12T12:05:35.182Z,34.21
2023-05-12T12:06:35.135Z,34.21
2023-05-12T12:07:35.069Z,34.17
2023-05-12T12:08:35.042Z,34.17
2023-05-12T12:09:34.971Z,34.13
2023-05-12T12:10:34.881Z,34.12
2023-05-12T12:11:34.841Z,34.08
2023-05-12T12:12:34.785Z,34.05
2023-05-12T12:13:34.709Z,33.94
2023-05-12T12:14:35.693Z,33.92
2023-05-12T12:15:34.603Z,33.97
2023-05-12T12:16:34.619Z,33.84
2023-05-12T12:17:34.571Z,33.79
2023-05-12T12:18:34.478Z,33.81
2023-05-12T12:19:34.372Z,33.64
2023-05-12T12:20:34.282Z,33.70
2023-05-12T12:21:34.236Z,33.64
2023-05-12T12:22:34.398Z,33.68
2023-05-12T12:23:47.342Z,33.70
2023-05-12T12:24:35.078Z,33.63
2023-05-12T12:25:34.057Z,33.63
2023-05-12T12:26:33.937Z,33.54
2023-05-12T12:27:33.856Z,33.48
2023-05-12T12:28:33.824Z,33.46
2023-05-12T12:29:33.784Z,33.40
2023-05-12T12:30:33.711Z,33.40
2023-05-12T12:31:33.662Z,33.44
2023-05-12T12:32:33.639Z,33.39
2023-05-12T12:33:33.612Z,33.32
2023-05-12T12:34:33.473Z,33.35
2023-05-12T12:35:33.470Z,33.26
2023-05-12T12:36:33.362Z,33.24
2023-05-12T12:37:33.293Z,33.21
2023-05-12T12:38:33.274Z,33.25
2023-05-12T12:39:33.170Z,33.23
2023-05-12T12:40:33.110Z,33.21
2023-05-12T12:41:33.060Z,33.18
2023-05-12T12:42:32.989Z,33.12
2023-05-12T12:43:32.971Z,33.09
2023-05-12T12:44:32.879Z,33.05
2023-05-12T12:45:32.850Z,33.11
2023-05-12T12:46:32.780Z,33.12
2023-05-12T12:47:32.784Z,33.12
2023-05-12T12:48:32.629Z,33.14
2023-05-12T12:49:32.643Z,33.17
2023-05-12T12:50:32.570Z,33.11
2023-05-12T12:51:44.575Z,33.00
2023-05-12T12:52:33.418Z,33.15
2023-05-12T12:53:32.357Z,33.19
2023-05-12T12:54:32.342Z,33.19
2023-05-12T12:55:32.409Z,33.09